sensor_id;sensor_type;location;lat;lon;timestamp;P1;durP1;ratioP1;P2;durP2;ratioP2
12880;SDS011;6508;53.786;9.996;2023-08-24T00:00:44;9.93;;;8.75;;
12880;SDS011;6508;53.786;9.996;2023-08-24T00:03:13;10.55;;;8.77;;
12880;SDS011;6508;53.786;9.996;2023-08-24T00:05:40;13.48;;;10.35;;
12880;SDS011;6508;53.786;9.996;2023-08-24T00:08:10;13.25;;;10.57;;
12880;SDS011;6508;53.786;9.996;2023-08-24T00:10:38;15.70;;;9.65;;
12880;SDS011;6508;53.786;9.996;2023-08-24T00:13:06;14.38;;;10.48;;
12880;SDS011;6508;53.786;9.996;2023-08-24T00:15:35;16.00;;;9.95;;
12880;SDS011;6508;53.786;9.996;2023-08-24T00:18:03;12.68;;;10.40;;
12880;SDS011;6508;53.786;9.996;2023-08-24T00:20:33;13.98;;;9.45;;
12880;SDS011;6508;53.786;9.996;2023-08-24T00:23:02;11.32;;;9.93;;
12880;SDS011;6508;53.786;9.996;2023-08-24T00:25:29;11.45;;;9.25;;
12880;SDS011;6508;53.786;9.996;2023-08-24T00:27:57;12.50;;;9.25;;
12880;SDS011;6508;53.786;9.996;2023-08-24T00:30:25;12.05;;;10.23;;
12880;SDS011;6508;53.786;9.996;2023-08-24T00:32:53;15.43;;;11.13;;
12880;SDS011;6508;53.786;9.996;2023-08-24T00:35:21;15.82;;;10.30;;
12880;SDS011;6508;53.786;9.996;2023-08-24T00:37:51;12.95;;;9.75;;
12880;SDS011;6508;53.786;9.996;2023-08-24T00:40:19;13.63;;;9.35;;
12880;SDS011;6508;53.786;9.996;2023-08-24T00:42:48;12.45;;;9.63;;
12880;SDS011;6508;53.786;9.996;2023-08-24T00:45:15;13.60;;;9.60;;
12880;SDS011;6508;53.786;9.996;2023-08-24T00:47:44;18.45;;;11.10;;
12880;SDS011;6508;53.786;9.996;2023-08-24T00:50:12;14.00;;;9.48;;
12880;SDS011;6508;53.786;9.996;2023-08-24T00:52:41;12.48;;;9.65;;
12880;SDS011;6508;53.786;9.996;2023-08-24T00:55:10;16.50;;;10.20;;
12880;SDS011;6508;53.786;9.996;2023-08-24T00:57:39;15.48;;;10.23;;
12880;SDS011;6508;53.786;9.996;2023-08-24T01:00:07;13.45;;;9.70;;
12880;SDS011;6508;53.786;9.996;2023-08-24T01:02:37;14.82;;;10.43;;
12880;SDS011;6508;53.786;9.996;2023-08-24T01:05:05;13.35;;;9.40;;
12880;SDS011;6508;53.786;9.996;2023-08-24T01:07:33;14.25;;;9.15;;
12880;SDS011;6508;53.786;9.996;2023-08-24T01:10:01;13.98;;;9.52;;
12880;SDS011;6508;53.786;9.996;2023-08-24T01:12:34;11.43;;;8.80;;
12880;SDS011;6508;53.786;9.996;2023-08-24T01:15:07;13.07;;;9.55;;
12880;SDS011;6508;53.786;9.996;2023-08-24T01:17:36;11.27;;;9.10;;
12880;SDS011;6508;53.786;9.996;2023-08-24T01:20:07;11.73;;;9.57;;
12880;SDS011;6508;53.786;9.996;2023-08-24T01:22:37;10.20;;;9.15;;
12880;SDS011;6508;53.786;9.996;2023-08-24T01:25:11;11.52;;;8.90;;
12880;SDS011;6508;53.786;9.996;2023-08-24T01:27:40;10.05;;;8.15;;
12880;SDS011;6508;53.786;9.996;2023-08-24T01:30:09;11.23;;;8.52;;
12880;SDS011;6508;53.786;9.996;2023-08-24T01:32:38;14.88;;;10.55;;
12880;SDS011;6508;53.786;9.996;2023-08-24T01:35:06;12.80;;;10.15;;
12880;SDS011;6508;53.786;9.996;2023-08-24T01:37:36;16.35;;;11.20;;
12880;SDS011;6508;53.786;9.996;2023-08-24T01:40:05;14.93;;;11.00;;
12880;SDS011;6508;53.786;9.996;2023-08-24T01:42:37;15.13;;;11.25;;
12880;SDS011;6508;53.786;9.996;2023-08-24T01:45:11;20.02;;;11.38;;
12880;SDS011;6508;53.786;9.996;2023-08-24T01:47:40;14.48;;;9.85;;
12880;SDS011;6508;53.786;9.996;2023-08-24T01:50:09;13.20;;;9.43;;
12880;SDS011;6508;53.786;9.996;2023-08-24T01:52:38;12.10;;;8.52;;
12880;SDS011;6508;53.786;9.996;2023-08-24T01:55:08;13.60;;;9.15;;
12880;SDS011;6508;53.786;9.996;2023-08-24T01:57:35;14.07;;;9.20;;
12880;SDS011;6508;53.786;9.996;2023-08-24T02:00:04;14.18;;;10.27;;
12880;SDS011;6508;53.786;9.996;2023-08-24T02:02:41;11.93;;;9.30;;
12880;SDS011;6508;53.786;9.996;2023-08-24T02:05:09;13.80;;;9.77;;
12880;SDS011;6508;53.786;9.996;2023-08-24T02:07:38;12.15;;;9.18;;
12880;SDS011;6508;53.786;9.996;2023-08-24T02:10:07;13.52;;;9.60;;
12880;SDS011;6508;53.786;9.996;2023-08-24T02:12:35;15.73;;;10.23;;
12880;SDS011;6508;53.786;9.996;2023-08-24T02:15:04;12.43;;;9.55;;
12880;SDS011;6508;53.786;9.996;2023-08-24T02:17:32;11.60;;;9.43;;
12880;SDS011;6508;53.786;9.996;2023-08-24T02:20:01;18.55;;;10.20;;
12880;SDS011;6508;53.786;9.996;2023-08-24T02:22:31;14.38;;;10.23;;
12880;SDS011;6508;53.786;9.996;2023-08-24T02:24:59;15.68;;;10.60;;
12880;SDS011;6508;53.786;9.996;2023-08-24T02:27:27;17.33;;;11.20;;
12880;SDS011;6508;53.786;9.996;2023-08-24T02:29:56;17.63;;;11.27;;
12880;SDS011;6508;53.786;9.996;2023-08-24T02:32:25;17.60;;;11.77;;
12880;SDS011;6508;53.786;9.996;2023-08-24T02:34:52;19.00;;;12.07;;
12880;SDS011;6508;53.786;9.996;2023-08-24T02:37:23;20.60;;;11.43;;
12880;SDS011;6508;53.786;9.996;2023-08-24T02:39:51;19.40;;;12.27;;
12880;SDS011;6508;53.786;9.996;2023-08-24T02:42:19;17.80;;;11.40;;
12880;SDS011;6508;53.786;9.996;2023-08-24T02:44:47;16.17;;;9.68;;
12880;SDS011;6508;53.786;9.996;2023-08-24T02:47:15;13.02;;;8.85;;
12880;SDS011;6508;53.786;9.996;2023-08-24T02:49:43;13.77;;;9.40;;
12880;SDS011;6508;53.786;9.996;2023-08-24T02:52:10;12.35;;;9.30;;
12880;SDS011;6508;53.786;9.996;2023-08-24T02:54:39;11.85;;;9.25;;
12880;SDS011;6508;53.786;9.996;2023-08-24T02:57:08;11.23;;;9.05;;
12880;SDS011;6508;53.786;9.996;2023-08-24T02:59:36;14.57;;;9.73;;
12880;SDS011;6508;53.786;9.996;2023-08-24T03:02:03;13.40;;;9.27;;
12880;SDS011;6508;53.786;9.996;2023-08-24T03:04:31;12.70;;;9.70;;
12880;SDS011;6508;53.786;9.996;2023-08-24T03:07:01;17.42;;;11.20;;
12880;SDS011;6508;53.786;9.996;2023-08-24T03:09:29;16.33;;;10.52;;
12880;SDS011;6508;53.786;9.996;2023-08-24T03:11:58;16.65;;;11.02;;
12880;SDS011;6508;53.786;9.996;2023-08-24T03:14:27;17.38;;;10.82;;
12880;SDS011;6508;53.786;9.996;2023-08-24T03:16:54;16.27;;;10.82;;
12880;SDS011;6508;53.786;9.996;2023-08-24T03:19:22;17.73;;;11.07;;
12880;SDS011;6508;53.786;9.996;2023-08-24T03:21:50;15.45;;;10.32;;
12880;SDS011;6508;53.786;9.996;2023-08-24T03:24:18;17.95;;;10.90;;
12880;SDS011;6508;53.786;9.996;2023-08-24T03:26:46;13.88;;;10.73;;
12880;SDS011;6508;53.786;9.996;2023-08-24T03:29:15;11.93;;;9.73;;
12880;SDS011;6508;53.786;9.996;2023-08-24T03:31:44;15.23;;;9.98;;
12880;SDS011;6508;53.786;9.996;2023-08-24T03:34:12;11.07;;;9.43;;
12880;SDS011;6508;53.786;9.996;2023-08-24T03:36:39;12.68;;;9.98;;
12880;SDS011;6508;53.786;9.996;2023-08-24T03:39:07;12.63;;;10.10;;
12880;SDS011;6508;53.786;9.996;2023-08-24T03:41:36;16.05;;;10.63;;
12880;SDS011;6508;53.786;9.996;2023-08-24T03:44:04;14.50;;;10.57;;
12880;SDS011;6508;53.786;9.996;2023-08-24T03:46:33;16.27;;;10.73;;
12880;SDS011;6508;53.786;9.996;2023-08-24T03:49:02;21.40;;;12.13;;
12880;SDS011;6508;53.786;9.996;2023-08-24T03:51:29;17.02;;;11.60;;
12880;SDS011;6508;53.786;9.996;2023-08-24T03:53:59;17.13;;;11.93;;
12880;SDS011;6508;53.786;9.996;2023-08-24T03:56:26;17.95;;;11.55;;
12880;SDS011;6508;53.786;9.996;2023-08-24T03:58:54;15.23;;;11.25;;
12880;SDS011;6508;53.786;9.996;2023-08-24T04:01:22;16.73;;;10.65;;
12880;SDS011;6508;53.786;9.996;2023-08-24T04:03:51;14.73;;;10.77;;
12880;SDS011;6508;53.786;9.996;2023-08-24T04:06:20;17.90;;;10.93;;
12880;SDS011;6508;53.786;9.996;2023-08-24T04:08:48;14.27;;;10.95;;
12880;SDS011;6508;53.786;9.996;2023-08-24T04:11:16;17.63;;;9.95;;
12880;SDS011;6508;53.786;9.996;2023-08-24T04:13:45;15.73;;;10.13;;
12880;SDS011;6508;53.786;9.996;2023-08-24T04:16:14;15.45;;;10.63;;
12880;SDS011;6508;53.786;9.996;2023-08-24T04:18:41;16.02;;;11.18;;
12880;SDS011;6508;53.786;9.996;2023-08-24T04:21:11;17.88;;;10.88;;
12880;SDS011;6508;53.786;9.996;2023-08-24T04:23:38;16.38;;;10.00;;
12880;SDS011;6508;53.786;9.996;2023-08-24T04:26:11;13.43;;;9.77;;
12880;SDS011;6508;53.786;9.996;2023-08-24T04:28:40;17.35;;;9.30;;
12880;SDS011;6508;53.786;9.996;2023-08-24T04:31:08;13.35;;;9.02;;
12880;SDS011;6508;53.786;9.996;2023-08-24T04:33:36;11.60;;;9.23;;
12880;SDS011;6508;53.786;9.996;2023-08-24T04:36:04;13.30;;;8.55;;
12880;SDS011;6508;53.786;9.996;2023-08-24T04:38:33;14.20;;;8.40;;
12880;SDS011;6508;53.786;9.996;2023-08-24T04:41:02;10.50;;;7.80;;
12880;SDS011;6508;53.786;9.996;2023-08-24T04:43:33;11.45;;;8.02;;
12880;SDS011;6508;53.786;9.996;2023-08-24T04:46:00;12.32;;;8.50;;
12880;SDS011;6508;53.786;9.996;2023-08-24T04:48:28;11.77;;;8.13;;
12880;SDS011;6508;53.786;9.996;2023-08-24T04:50:59;10.18;;;7.57;;
12880;SDS011;6508;53.786;9.996;2023-08-24T04:53:26;9.77;;;7.45;;
12880;SDS011;6508;53.786;9.996;2023-08-24T04:55:55;8.73;;;6.57;;
12880;SDS011;6508;53.786;9.996;2023-08-24T04:58:23;9.20;;;7.20;;
12880;SDS011;6508;53.786;9.996;2023-08-24T05:00:51;11.45;;;7.65;;
12880;SDS011;6508;53.786;9.996;2023-08-24T05:03:22;13.15;;;7.68;;
12880;SDS011;6508;53.786;9.996;2023-08-24T05:05:49;10.15;;;7.50;;
12880;SDS011;6508;53.786;9.996;2023-08-24T05:08:17;11.43;;;8.75;;
12880;SDS011;6508;53.786;9.996;2023-08-24T05:10:45;10.07;;;7.82;;
12880;SDS011;6508;53.786;9.996;2023-08-24T05:13:14;9.52;;;8.30;;
12880;SDS011;6508;53.786;9.996;2023-08-24T05:15:42;11.35;;;8.15;;
12880;SDS011;6508;53.786;9.996;2023-08-24T05:18:10;10.55;;;8.27;;
12880;SDS011;6508;53.786;9.996;2023-08-24T05:20:38;12.10;;;7.53;;
12880;SDS011;6508;53.786;9.996;2023-08-24T05:23:05;9.75;;;7.35;;
12880;SDS011;6508;53.786;9.996;2023-08-24T05:25:34;8.35;;;7.45;;
12880;SDS011;6508;53.786;9.996;2023-08-24T05:28:02;9.65;;;7.20;;
12880;SDS011;6508;53.786;9.996;2023-08-24T05:30:31;7.45;;;6.35;;
12880;SDS011;6508;53.786;9.996;2023-08-24T05:32:59;9.25;;;6.18;;
12880;SDS011;6508;53.786;9.996;2023-08-24T05:35:27;10.52;;;6.68;;
12880;SDS011;6508;53.786;9.996;2023-08-24T05:37:55;6.55;;;6.05;;
12880;SDS011;6508;53.786;9.996;2023-08-24T05:40:23;6.85;;;6.32;;
12880;SDS011;6508;53.786;9.996;2023-08-24T05:42:50;6.22;;;5.72;;
12880;SDS011;6508;53.786;9.996;2023-08-24T05:45:19;6.03;;;5.63;;
12880;SDS011;6508;53.786;9.996;2023-08-24T05:47:52;5.85;;;5.45;;
12880;SDS011;6508;53.786;9.996;2023-08-24T05:50:20;5.07;;;4.78;;
12880;SDS011;6508;53.786;9.996;2023-08-24T05:52:48;4.70;;;4.40;;
12880;SDS011;6508;53.786;9.996;2023-08-24T05:55:15;4.82;;;4.53;;
12880;SDS011;6508;53.786;9.996;2023-08-24T05:57:43;4.85;;;4.55;;
12880;SDS011;6508;53.786;9.996;2023-08-24T06:00:12;4.53;;;4.32;;
12880;SDS011;6508;53.786;9.996;2023-08-24T06:02:41;4.32;;;3.97;;
12880;SDS011;6508;53.786;9.996;2023-08-24T06:05:10;3.70;;;3.50;;
12880;SDS011;6508;53.786;9.996;2023-08-24T06:07:38;3.78;;;3.58;;
12880;SDS011;6508;53.786;9.996;2023-08-24T06:10:06;3.13;;;2.92;;
12880;SDS011;6508;53.786;9.996;2023-08-24T06:12:34;3.17;;;2.97;;
12880;SDS011;6508;53.786;9.996;2023-08-24T06:15:02;3.13;;;3.00;;
12880;SDS011;6508;53.786;9.996;2023-08-24T06:17:31;3.90;;;3.63;;
12880;SDS011;6508;53.786;9.996;2023-08-24T06:19:59;3.50;;;3.30;;
12880;SDS011;6508;53.786;9.996;2023-08-24T06:22:28;4.65;;;4.25;;
12880;SDS011;6508;53.786;9.996;2023-08-24T06:24:56;5.07;;;4.68;;
12880;SDS011;6508;53.786;9.996;2023-08-24T06:27:26;4.63;;;4.32;;
12880;SDS011;6508;53.786;9.996;2023-08-24T06:29:54;4.80;;;4.47;;
12880;SDS011;6508;53.786;9.996;2023-08-24T06:32:22;4.18;;;3.88;;
12880;SDS011;6508;53.786;9.996;2023-08-24T06:34:50;3.85;;;3.28;;
12880;SDS011;6508;53.786;9.996;2023-08-24T06:37:18;4.00;;;3.78;;
12880;SDS011;6508;53.786;9.996;2023-08-24T06:39:47;3.85;;;3.55;;
12880;SDS011;6508;53.786;9.996;2023-08-24T06:42:15;3.70;;;3.50;;
12880;SDS011;6508;53.786;9.996;2023-08-24T06:44:43;3.88;;;3.58;;
12880;SDS011;6508;53.786;9.996;2023-08-24T06:47:10;3.00;;;2.75;;
12880;SDS011;6508;53.786;9.996;2023-08-24T06:49:38;2.90;;;2.70;;
12880;SDS011;6508;53.786;9.996;2023-08-24T06:52:05;2.92;;;2.72;;
12880;SDS011;6508;53.786;9.996;2023-08-24T06:54:34;3.10;;;2.75;;
12880;SDS011;6508;53.786;9.996;2023-08-24T06:57:04;3.13;;;2.80;;
12880;SDS011;6508;53.786;9.996;2023-08-24T06:59:32;2.42;;;2.33;;
12880;SDS011;6508;53.786;9.996;2023-08-24T07:02:00;2.58;;;2.45;;
12880;SDS011;6508;53.786;9.996;2023-08-24T07:04:28;2.80;;;2.67;;
12880;SDS011;6508;53.786;9.996;2023-08-24T07:06:56;3.38;;;3.15;;
12880;SDS011;6508;53.786;9.996;2023-08-24T07:09:24;2.75;;;2.60;;
12880;SDS011;6508;53.786;9.996;2023-08-24T07:11:51;2.90;;;2.70;;
12880;SDS011;6508;53.786;9.996;2023-08-24T07:14:21;2.83;;;2.63;;
12880;SDS011;6508;53.786;9.996;2023-08-24T07:16:49;3.00;;;2.80;;
12880;SDS011;6508;53.786;9.996;2023-08-24T07:19:17;2.72;;;2.63;;
12880;SDS011;6508;53.786;9.996;2023-08-24T07:21:44;2.80;;;2.70;;
12880;SDS011;6508;53.786;9.996;2023-08-24T07:24:12;3.47;;;2.30;;
12880;SDS011;6508;53.786;9.996;2023-08-24T07:26:40;2.90;;;2.70;;
12880;SDS011;6508;53.786;9.996;2023-08-24T07:29:08;2.55;;;2.35;;
12880;SDS011;6508;53.786;9.996;2023-08-24T07:31:37;2.47;;;2.30;;
12880;SDS011;6508;53.786;9.996;2023-08-24T07:34:05;2.80;;;2.60;;
12880;SDS011;6508;53.786;9.996;2023-08-24T07:36:33;2.60;;;2.38;;
12880;SDS011;6508;53.786;9.996;2023-08-24T07:39:00;3.35;;;3.10;;
12880;SDS011;6508;53.786;9.996;2023-08-24T07:41:28;3.80;;;3.60;;
12880;SDS011;6508;53.786;9.996;2023-08-24T07:43:56;3.97;;;2.60;;
12880;SDS011;6508;53.786;9.996;2023-08-24T07:46:24;2.95;;;2.75;;
12880;SDS011;6508;53.786;9.996;2023-08-24T07:48:53;5.03;;;2.53;;
12880;SDS011;6508;53.786;9.996;2023-08-24T07:51:22;3.08;;;2.80;;
12880;SDS011;6508;53.786;9.996;2023-08-24T07:53:50;3.72;;;3.53;;
12880;SDS011;6508;53.786;9.996;2023-08-24T07:56:18;3.63;;;3.00;;
12880;SDS011;6508;53.786;9.996;2023-08-24T07:58:47;2.70;;;2.40;;
12880;SDS011;6508;53.786;9.996;2023-08-24T08:01:15;3.13;;;2.92;;
12880;SDS011;6508;53.786;9.996;2023-08-24T08:03:43;3.08;;;2.88;;
12880;SDS011;6508;53.786;9.996;2023-08-24T08:06:12;2.92;;;2.60;;
12880;SDS011;6508;53.786;9.996;2023-08-24T08:08:40;1.65;;;1.60;;
12880;SDS011;6508;53.786;9.996;2023-08-24T08:11:07;2.30;;;1.65;;
12880;SDS011;6508;53.786;9.996;2023-08-24T08:13:36;2.03;;;1.60;;
12880;SDS011;6508;53.786;9.996;2023-08-24T08:16:04;1.60;;;1.50;;
12880;SDS011;6508;53.786;9.996;2023-08-24T08:18:32;1.58;;;1.48;;
12880;SDS011;6508;53.786;9.996;2023-08-24T08:21:00;1.30;;;1.30;;
12880;SDS011;6508;53.786;9.996;2023-08-24T08:23:30;2.85;;;1.50;;
12880;SDS011;6508;53.786;9.996;2023-08-24T08:25:57;1.40;;;1.33;;
12880;SDS011;6508;53.786;9.996;2023-08-24T08:28:25;1.55;;;1.40;;
12880;SDS011;6508;53.786;9.996;2023-08-24T08:30:53;1.48;;;1.38;;
12880;SDS011;6508;53.786;9.996;2023-08-24T08:33:21;1.80;;;1.70;;
12880;SDS011;6508;53.786;9.996;2023-08-24T08:35:50;3.65;;;1.75;;
12880;SDS011;6508;53.786;9.996;2023-08-24T08:38:17;1.77;;;1.67;;
12880;SDS011;6508;53.786;9.996;2023-08-24T08:40:50;1.52;;;1.50;;
12880;SDS011;6508;53.786;9.996;2023-08-24T08:43:18;1.98;;;1.88;;
12880;SDS011;6508;53.786;9.996;2023-08-24T08:45:45;2.08;;;1.63;;
12880;SDS011;6508;53.786;9.996;2023-08-24T08:48:14;2.35;;;1.70;;
12880;SDS011;6508;53.786;9.996;2023-08-24T08:50:41;1.70;;;1.50;;
12880;SDS011;6508;53.786;9.996;2023-08-24T08:53:09;2.00;;;1.90;;
12880;SDS011;6508;53.786;9.996;2023-08-24T08:55:37;1.95;;;1.80;;
12880;SDS011;6508;53.786;9.996;2023-08-24T08:58:07;1.88;;;1.77;;
12880;SDS011;6508;53.786;9.996;2023-08-24T09:00:35;1.70;;;1.60;;
12880;SDS011;6508;53.786;9.996;2023-08-24T09:03:03;2.95;;;1.90;;
12880;SDS011;6508;53.786;9.996;2023-08-24T09:05:32;2.88;;;1.80;;
12880;SDS011;6508;53.786;9.996;2023-08-24T09:08:00;1.98;;;1.70;;
12880;SDS011;6508;53.786;9.996;2023-08-24T09:10:29;1.92;;;1.80;;
12880;SDS011;6508;53.786;9.996;2023-08-24T09:12:57;2.53;;;2.00;;
12880;SDS011;6508;53.786;9.996;2023-08-24T09:15:26;1.83;;;1.73;;
12880;SDS011;6508;53.786;9.996;2023-08-24T09:17:58;1.75;;;1.70;;
12880;SDS011;6508;53.786;9.996;2023-08-24T09:20:27;2.67;;;2.20;;
12880;SDS011;6508;53.786;9.996;2023-08-24T09:22:55;1.92;;;1.83;;
12880;SDS011;6508;53.786;9.996;2023-08-24T09:25:23;2.28;;;2.17;;
12880;SDS011;6508;53.786;9.996;2023-08-24T09:27:58;2.10;;;2.00;;
12880;SDS011;6508;53.786;9.996;2023-08-24T09:30:30;2.17;;;2.08;;
12880;SDS011;6508;53.786;9.996;2023-08-24T09:33:02;2.15;;;1.90;;
12880;SDS011;6508;53.786;9.996;2023-08-24T09:35:33;2.28;;;2.10;;
12880;SDS011;6508;53.786;9.996;2023-08-24T09:38:14;2.05;;;1.92;;
12880;SDS011;6508;53.786;9.996;2023-08-24T09:40:44;2.47;;;2.28;;
12880;SDS011;6508;53.786;9.996;2023-08-24T09:43:15;2.20;;;2.10;;
12880;SDS011;6508;53.786;9.996;2023-08-24T09:45:51;1.98;;;1.88;;
12880;SDS011;6508;53.786;9.996;2023-08-24T09:48:20;2.00;;;1.90;;
12880;SDS011;6508;53.786;9.996;2023-08-24T09:50:49;2.03;;;1.90;;
12880;SDS011;6508;53.786;9.996;2023-08-24T09:53:17;2.03;;;1.98;;
12880;SDS011;6508;53.786;9.996;2023-08-24T09:55:48;2.33;;;1.98;;
12880;SDS011;6508;53.786;9.996;2023-08-24T09:58:16;2.13;;;2.03;;
12880;SDS011;6508;53.786;9.996;2023-08-24T10:00:45;2.17;;;2.08;;
12880;SDS011;6508;53.786;9.996;2023-08-24T10:03:15;1.98;;;1.88;;
12880;SDS011;6508;53.786;9.996;2023-08-24T10:05:46;1.95;;;1.85;;
12880;SDS011;6508;53.786;9.996;2023-08-24T10:08:26;2.17;;;1.92;;
12880;SDS011;6508;53.786;9.996;2023-08-24T10:10:55;2.30;;;2.20;;
12880;SDS011;6508;53.786;9.996;2023-08-24T10:13:28;2.42;;;2.33;;
12880;SDS011;6508;53.786;9.996;2023-08-24T10:15:57;3.03;;;2.30;;
12880;SDS011;6508;53.786;9.996;2023-08-24T10:18:26;2.00;;;1.90;;
12880;SDS011;6508;53.786;9.996;2023-08-24T10:20:54;2.30;;;2.10;;
12880;SDS011;6508;53.786;9.996;2023-08-24T10:23:23;1.92;;;1.90;;
12880;SDS011;6508;53.786;9.996;2023-08-24T10:25:52;2.50;;;2.30;;
12880;SDS011;6508;53.786;9.996;2023-08-24T10:28:22;2.35;;;2.17;;
12880;SDS011;6508;53.786;9.996;2023-08-24T10:30:51;2.22;;;1.92;;
12880;SDS011;6508;53.786;9.996;2023-08-24T10:33:19;2.47;;;2.13;;
12880;SDS011;6508;53.786;9.996;2023-08-24T10:35:49;2.53;;;2.40;;
12880;SDS011;6508;53.786;9.996;2023-08-24T10:38:24;3.15;;;2.95;;
12880;SDS011;6508;53.786;9.996;2023-08-24T10:40:53;2.95;;;2.75;;
12880;SDS011;6508;53.786;9.996;2023-08-24T10:43:22;3.53;;;2.83;;
12880;SDS011;6508;53.786;9.996;2023-08-24T10:45:56;2.95;;;2.58;;
12880;SDS011;6508;53.786;9.996;2023-08-24T10:48:25;3.53;;;2.80;;
12880;SDS011;6508;53.786;9.996;2023-08-24T10:53:40;3.40;;;3.10;;
12880;SDS011;6508;53.786;9.996;2023-08-24T10:56:11;3.60;;;3.40;;
12880;SDS011;6508;53.786;9.996;2023-08-24T10:58:40;3.08;;;2.88;;
12880;SDS011;6508;53.786;9.996;2023-08-24T11:01:13;3.40;;;3.10;;
12880;SDS011;6508;53.786;9.996;2023-08-24T11:03:42;3.75;;;3.15;;
12880;SDS011;6508;53.786;9.996;2023-08-24T11:06:19;2.95;;;2.75;;
12880;SDS011;6508;53.786;9.996;2023-08-24T11:08:49;5.72;;;3.38;;
12880;SDS011;6508;53.786;9.996;2023-08-24T11:11:20;3.35;;;3.15;;
12880;SDS011;6508;53.786;9.996;2023-08-24T11:16:39;3.20;;;3.10;;
12880;SDS011;6508;53.786;9.996;2023-08-24T11:19:07;3.53;;;3.22;;
12880;SDS011;6508;53.786;9.996;2023-08-24T11:21:36;4.32;;;3.92;;
12880;SDS011;6508;53.786;9.996;2023-08-24T11:24:06;3.88;;;3.58;;
12880;SDS011;6508;53.786;9.996;2023-08-24T11:26:34;4.05;;;3.75;;
12880;SDS011;6508;53.786;9.996;2023-08-24T11:29:04;3.17;;;2.90;;
12880;SDS011;6508;53.786;9.996;2023-08-24T11:31:32;4.30;;;3.10;;
12880;SDS011;6508;53.786;9.996;2023-08-24T11:34:00;3.35;;;3.15;;
12880;SDS011;6508;53.786;9.996;2023-08-24T11:36:29;3.60;;;3.40;;
12880;SDS011;6508;53.786;9.996;2023-08-24T11:38:57;3.58;;;3.38;;
12880;SDS011;6508;53.786;9.996;2023-08-24T11:41:27;4.10;;;3.55;;
12880;SDS011;6508;53.786;9.996;2023-08-24T11:43:59;3.83;;;3.53;;
12880;SDS011;6508;53.786;9.996;2023-08-24T11:46:45;2.85;;;2.75;;
12880;SDS011;6508;53.786;9.996;2023-08-24T11:49:13;3.30;;;3.10;;
12880;SDS011;6508;53.786;9.996;2023-08-24T11:51:41;3.75;;;2.85;;
12880;SDS011;6508;53.786;9.996;2023-08-24T11:54:09;2.90;;;2.70;;
12880;SDS011;6508;53.786;9.996;2023-08-24T11:56:41;3.60;;;3.33;;
12880;SDS011;6508;53.786;9.996;2023-08-24T11:59:10;3.25;;;3.03;;
12880;SDS011;6508;53.786;9.996;2023-08-24T12:01:39;3.72;;;3.42;;
12880;SDS011;6508;53.786;9.996;2023-08-24T12:04:07;3.78;;;3.45;;
12880;SDS011;6508;53.786;9.996;2023-08-24T12:06:35;3.83;;;3.50;;
12880;SDS011;6508;53.786;9.996;2023-08-24T12:09:04;4.18;;;3.75;;
12880;SDS011;6508;53.786;9.996;2023-08-24T12:11:35;3.35;;;3.10;;
12880;SDS011;6508;53.786;9.996;2023-08-24T12:14:05;3.28;;;3.08;;
12880;SDS011;6508;53.786;9.996;2023-08-24T12:16:36;4.00;;;3.72;;
12880;SDS011;6508;53.786;9.996;2023-08-24T12:19:07;5.95;;;3.50;;
12880;SDS011;6508;53.786;9.996;2023-08-24T12:21:34;6.65;;;3.47;;
12880;SDS011;6508;53.786;9.996;2023-08-24T12:24:03;3.15;;;2.95;;
12880;SDS011;6508;53.786;9.996;2023-08-24T12:26:32;3.70;;;3.40;;
12880;SDS011;6508;53.786;9.996;2023-08-24T12:29:03;4.20;;;3.60;;
12880;SDS011;6508;53.786;9.996;2023-08-24T12:31:34;4.00;;;3.70;;
12880;SDS011;6508;53.786;9.996;2023-08-24T12:34:02;3.38;;;3.17;;
12880;SDS011;6508;53.786;9.996;2023-08-24T12:36:31;3.10;;;2.90;;
12880;SDS011;6508;53.786;9.996;2023-08-24T12:38:59;3.55;;;3.33;;
12880;SDS011;6508;53.786;9.996;2023-08-24T12:41:30;3.83;;;3.63;;
12880;SDS011;6508;53.786;9.996;2023-08-24T12:43:58;3.92;;;3.22;;
12880;SDS011;6508;53.786;9.996;2023-08-24T12:46:31;3.80;;;3.45;;
12880;SDS011;6508;53.786;9.996;2023-08-24T12:49:01;3.92;;;3.30;;
12880;SDS011;6508;53.786;9.996;2023-08-24T12:51:28;4.10;;;3.22;;
12880;SDS011;6508;53.786;9.996;2023-08-24T12:53:56;3.30;;;3.10;;
12880;SDS011;6508;53.786;9.996;2023-08-24T12:56:24;3.88;;;3.67;;
12880;SDS011;6508;53.786;9.996;2023-08-24T12:58:52;4.80;;;4.38;;
12880;SDS011;6508;53.786;9.996;2023-08-24T13:01:20;4.68;;;4.28;;
12880;SDS011;6508;53.786;9.996;2023-08-24T13:03:48;4.00;;;3.70;;
12880;SDS011;6508;53.786;9.996;2023-08-24T13:06:17;4.38;;;4.00;;
12880;SDS011;6508;53.786;9.996;2023-08-24T13:08:50;3.72;;;3.42;;
12880;SDS011;6508;53.786;9.996;2023-08-24T13:11:18;4.40;;;4.10;;
12880;SDS011;6508;53.786;9.996;2023-08-24T13:13:46;4.13;;;3.72;;
12880;SDS011;6508;53.786;9.996;2023-08-24T13:16:14;4.32;;;4.00;;
12880;SDS011;6508;53.786;9.996;2023-08-24T13:18:42;4.45;;;4.15;;
12880;SDS011;6508;53.786;9.996;2023-08-24T13:21:10;4.00;;;3.60;;
12880;SDS011;6508;53.786;9.996;2023-08-24T13:23:39;4.50;;;4.00;;
12880;SDS011;6508;53.786;9.996;2023-08-24T13:26:12;4.80;;;4.35;;
12880;SDS011;6508;53.786;9.996;2023-08-24T13:28:44;4.68;;;4.13;;
12880;SDS011;6508;53.786;9.996;2023-08-24T13:31:12;4.35;;;3.97;;
12880;SDS011;6508;53.786;9.996;2023-08-24T13:33:40;4.30;;;4.00;;
12880;SDS011;6508;53.786;9.996;2023-08-24T13:36:07;5.85;;;4.28;;
12880;SDS011;6508;53.786;9.996;2023-08-24T13:38:35;4.88;;;4.57;;
12880;SDS011;6508;53.786;9.996;2023-08-24T13:41:04;4.50;;;4.18;;
12880;SDS011;6508;53.786;9.996;2023-08-24T13:43:32;5.07;;;4.13;;
12880;SDS011;6508;53.786;9.996;2023-08-24T13:46:00;5.35;;;4.45;;
12880;SDS011;6508;53.786;9.996;2023-08-24T13:48:30;4.97;;;4.70;;
12880;SDS011;6508;53.786;9.996;2023-08-24T13:51:00;4.63;;;4.25;;
12880;SDS011;6508;53.786;9.996;2023-08-24T13:53:28;5.43;;;3.97;;
12880;SDS011;6508;53.786;9.996;2023-08-24T13:55:56;5.50;;;5.10;;
12880;SDS011;6508;53.786;9.996;2023-08-24T13:58:26;3.78;;;3.50;;
12880;SDS011;6508;53.786;9.996;2023-08-24T14:00:57;3.60;;;3.40;;
12880;SDS011;6508;53.786;9.996;2023-08-24T14:03:25;4.00;;;3.70;;
12880;SDS011;6508;53.786;9.996;2023-08-24T14:05:56;3.05;;;2.95;;
12880;SDS011;6508;53.786;9.996;2023-08-24T14:08:24;3.33;;;3.13;;
12880;SDS011;6508;53.786;9.996;2023-08-24T14:10:52;4.07;;;3.30;;
12880;SDS011;6508;53.786;9.996;2023-08-24T14:13:19;3.72;;;3.42;;
12880;SDS011;6508;53.786;9.996;2023-08-24T14:15:49;3.35;;;3.15;;
12880;SDS011;6508;53.786;9.996;2023-08-24T14:18:17;3.50;;;3.17;;
12880;SDS011;6508;53.786;9.996;2023-08-24T14:20:47;3.88;;;3.55;;
12880;SDS011;6508;53.786;9.996;2023-08-24T14:23:15;3.42;;;3.03;;
12880;SDS011;6508;53.786;9.996;2023-08-24T14:25:42;3.00;;;2.80;;
12880;SDS011;6508;53.786;9.996;2023-08-24T14:28:10;3.72;;;3.53;;
12880;SDS011;6508;53.786;9.996;2023-08-24T14:30:38;3.72;;;3.42;;
12880;SDS011;6508;53.786;9.996;2023-08-24T14:33:07;3.05;;;2.90;;
12880;SDS011;6508;53.786;9.996;2023-08-24T14:35:36;3.17;;;2.97;;
12880;SDS011;6508;53.786;9.996;2023-08-24T14:38:03;3.33;;;3.00;;
12880;SDS011;6508;53.786;9.996;2023-08-24T14:40:31;3.50;;;3.15;;
12880;SDS011;6508;53.786;9.996;2023-08-24T14:42:59;3.83;;;3.40;;
12880;SDS011;6508;53.786;9.996;2023-08-24T14:45:27;3.25;;;2.95;;
12880;SDS011;6508;53.786;9.996;2023-08-24T14:47:55;3.60;;;3.30;;
12880;SDS011;6508;53.786;9.996;2023-08-24T14:50:24;3.38;;;3.17;;
12880;SDS011;6508;53.786;9.996;2023-08-24T14:52:52;3.15;;;3.00;;
12880;SDS011;6508;53.786;9.996;2023-08-24T14:55:20;3.88;;;3.13;;
12880;SDS011;6508;53.786;9.996;2023-08-24T14:57:48;3.00;;;2.80;;
12880;SDS011;6508;53.786;9.996;2023-08-24T15:00:20;3.88;;;2.80;;
12880;SDS011;6508;53.786;9.996;2023-08-24T15:02:47;2.95;;;2.70;;
12880;SDS011;6508;53.786;9.996;2023-08-24T15:05:15;2.95;;;2.75;;
12880;SDS011;6508;53.786;9.996;2023-08-24T15:07:46;3.55;;;2.60;;
12880;SDS011;6508;53.786;9.996;2023-08-24T15:10:14;2.90;;;2.70;;